Time;durP1;ratioP1;P1;durP2;ratioP2;P2;SDS_P1;SDS_P2;PMS_P1;PMS_P2;Temp;Humidity;BMP_temperature;BMP_pressure;BME280_temperature;BME280_humidity;BME280_pressure;Samples;Min_cycle;Max_cycle;Signal;HPM_P1;HPM_P2
2022/04/09 00:00:34;;;;;;;3.28;1.30;;;;;;;12.23;100.00;98483.44;4880011;29;20058;-77
2022/04/09 00:03:03;;;;;;;4.15;1.15;;;;;;;12.18;100.00;98490.22;4879456;29;20560;-77
2022/04/09 00:05:33;;;;;;;4.15;1.20;;;;;;;12.14;100.00;98486.13;4896741;29;20057;-77
2022/04/09 00:08:01;;;;;;;4.50;1.30;;;;;;;12.11;100.00;98481.09;4896574;29;20457;-77
2022/04/09 00:10:29;;;;;;;2.83;1.17;;;;;;;12.10;100.00;98476.72;4896969;29;20052;-77
2022/04/09 00:12:57;;;;;;;2.42;1.35;;;;;;;12.11;100.00;98479.25;4879674;29;20494;-77
2022/04/09 00:15:26;;;;;;;2.30;1.10;;;;;;;12.10;100.00;98476.72;4896575;29;20550;-77
2022/04/09 00:17:54;;;;;;;4.53;1.40;;;;;;;12.14;100.00;98480.78;4897091;29;20048;-74
2022/04/09 00:20:22;;;;;;;2.08;1.25;;;;;;;12.13;100.00;98460.41;4896847;29;20048;-76
2022/04/09 00:22:52;;;;;;;2.03;1.05;;;;;;;12.16;100.00;98460.09;4880122;29;20073;-75
2022/04/09 00:25:24;;;;;;;3.75;0.95;;;;;;;12.15;100.00;98459.25;4896512;29;20053;-76
2022/04/09 00:27:52;;;;;;;3.25;1.40;;;;;;;12.06;100.00;98448.59;4900850;29;20044;-76
2022/04/09 00:30:21;;;;;;;4.28;1.65;;;;;;;12.03;100.00;98439.88;4900765;29;20075;-75
2022/04/09 00:32:49;;;;;;;2.03;1.02;;;;;;;12.11;100.00;98446.34;4900428;29;20079;-74
2022/04/09 00:35:18;;;;;;;2.80;1.42;;;;;;;12.10;100.00;98432.16;4900587;29;20335;-75
2022/04/09 00:37:47;;;;;;;3.25;1.40;;;;;;;12.12;100.00;98438.19;4883524;29;20509;-75
2022/04/09 00:40:19;;;;;;;3.67;1.30;;;;;;;12.17;100.00;98438.59;4900209;29;20131;-74
2022/04/09 00:42:47;;;;;;;4.50;1.40;;;;;;;12.16;100.00;98433.38;4900384;29;20049;-75
2022/04/09 00:45:15;;;;;;;2.30;1.45;;;;;;;12.17;100.00;98424.41;4883405;29;20469;-74
2022/04/09 00:47:44;;;;;;;3.85;1.42;;;;;;;12.11;100.00;98420.47;4900383;29;20514;-73
2022/04/09 00:50:13;;;;;;;2.45;1.50;;;;;;;12.18;100.00;98439.44;4883119;29;20061;-75
2022/04/09 00:52:46;;;;;;;4.28;1.70;;;;;;;12.17;100.00;98427.06;4900204;29;20040;-77
2022/04/09 00:55:18;;;;;;;4.68;1.42;;;;;;;12.12;100.00;98430.16;4900466;29;20056;-77
2022/04/09 00:57:48;;;;;;;2.53;1.38;;;;;;;12.14;100.00;98440.69;4900302;29;20147;-77
2022/04/09 01:00:16;;;;;;;2.88;1.60;;;;;;;12.15;100.00;98440.56;4883283;29;20566;-76
2022/04/09 01:02:45;;;;;;;2.97;1.35;;;;;;;12.23;100.00;98455.84;4883514;29;20060;-76
2022/04/09 01:05:14;;;;;;;1.80;1.23;;;;;;;12.31;100.00;98454.16;4900080;29;20048;-76
2022/04/09 01:07:42;;;;;;;3.35;1.20;;;;;;;12.23;100.00;98471.91;4883366;29;20053;-77
2022/04/09 01:10:11;;;;;;;3.42;1.33;;;;;;;12.26;100.00;98485.00;4883013;29;20391;-77
2022/04/09 01:12:41;;;;;;;3.03;1.40;;;;;;;12.16;100.00;98462.78;4899941;29;20495;-78
2022/04/09 01:15:10;;;;;;;3.33;1.73;;;;;;;12.18;100.00;98450.97;4899776;29;20055;-78
2022/04/09 01:17:38;;;;;;;4.55;1.80;;;;;;;12.13;100.00;98428.31;4882929;29;20052;-78
2022/04/09 01:20:17;;;;;;;3.13;1.42;;;;;;;12.07;100.00;98432.44;4882795;29;20071;-76
2022/04/09 01:22:47;;;;;;;4.00;1.33;;;;;;;12.10;100.00;98412.59;4900341;29;20068;-77
2022/04/09 01:25:16;;;;;;;5.43;1.70;;;;;;;12.15;100.00;98416.50;4882599;29;20438;-78
2022/04/09 01:27:44;;;;;;;4.32;1.73;;;;;;;12.13;100.00;98401.59;4899902;29;20049;-78
2022/04/09 01:30:14;;;;;;;2.80;1.30;;;;;;;12.11;100.00;98403.59;4899090;29;20461;-77
2022/04/09 01:32:42;;;;;;;4.40;1.50;;;;;;;12.22;100.00;98411.41;4899722;29;20044;-77
2022/04/09 01:35:10;;;;;;;3.08;1.48;;;;;;;12.22;100.00;98412.25;4882774;29;20075;-77
2022/04/09 01:37:38;;;;;;;3.60;1.70;;;;;;;12.15;100.00;98408.47;4898864;29;20048;-78
2022/04/09 01:40:10;;;;;;;4.45;1.70;;;;;;;12.20;100.00;98424.09;4899285;29;20052;-76
2022/04/09 01:42:38;;;;;;;3.95;1.67;;;;;;;12.18;100.00;98436.75;4899560;29;20041;-76
2022/04/09 01:45:07;;;;;;;3.08;1.70;;;;;;;12.13;100.00;98449.72;4899528;29;20083;-78
2022/04/09 01:47:40;;;;;;;4.25;1.70;;;;;;;12.04;100.00;98465.63;4899729;29;20052;-75
2022/04/09 01:50:11;;;;;;;3.10;1.30;;;;;;;11.99;100.00;98459.88;4899041;29;20052;-77
2022/04/09 01:52:40;;;;;;;4.25;1.70;;;;;;;11.91;100.00;98457.09;4882578;29;20070;-76
2022/04/09 01:55:10;;;;;;;5.25;1.40;;;;;;;12.00;100.00;98458.06;4899228;29;20059;-76
2022/04/09 01:57:38;;;;;;;3.03;1.55;;;;;;;11.98;100.00;98449.34;4899545;29;20041;-79
2022/04/09 02:00:10;;;;;;;3.42;1.50;;;;;;;12.03;100.00;98450.56;4899438;29;20122;-78
2022/04/09 02:02:38;;;;;;;3.28;1.70;;;;;;;11.94;100.00;98435.41;4899336;29;20075;-77
2022/04/09 02:05:08;;;;;;;3.08;1.60;;;;;;;12.04;100.00;98430.88;4899188;29;20412;-77
2022/04/09 02:07:36;;;;;;;3.78;1.92;;;;;;;11.98;100.00;98430.66;4881928;29;20631;-78
2022/04/09 02:10:05;;;;;;;4.13;1.40;;;;;;;12.03;100.00;98421.19;4898854;29;20048;-78
2022/04/09 02:12:36;;;;;;;3.90;1.98;;;;;;;11.89;100.00;98405.63;4898533;29;20153;-78
2022/04/09 02:15:05;;;;;;;5.25;2.00;;;;;;;11.85;100.00;98406.91;4898953;29;20048;-77
2022/04/09 02:17:35;;;;;;;5.93;2.03;;;;;;;11.91;100.00;98425.03;4898615;29;20044;-78
2022/04/09 02:20:03;;;;;;;5.68;1.88;;;;;;;11.79;100.00;98436.84;4898842;29;20124;-78
2022/04/09 02:22:35;;;;;;;4.10;2.13;;;;;;;11.68;100.00;98434.34;4898519;29;20104;-78
2022/04/09 02:25:03;;;;;;;4.45;2.00;;;;;;;11.71;100.00;98426.03;4882139;29;20056;-78
2022/04/09 02:27:31;;;;;;;5.88;2.40;;;;;;;11.68;100.00;98413.81;4881693;29;20087;-76
2022/04/09 02:30:01;;;;;;;5.07;2.17;;;;;;;11.81;100.00;98413.53;4898715;29;20048;-76
2022/04/09 02:32:30;;;;;;;6.03;2.00;;;;;;;11.73;100.00;98422.22;4881583;29;20518;-76
2022/04/09 02:34:58;;;;;;;5.20;2.25;;;;;;;11.68;100.00;98418.31;4898882;29;20143;-76
2022/04/09 02:37:26;;;;;;;5.15;2.10;;;;;;;11.72;100.00;98415.19;4898861;29;20048;-76
2022/04/09 02:39:54;;;;;;;6.65;2.10;;;;;;;11.81;100.00;98424.22;4899077;29;20045;-74
2022/04/09 02:42:22;;;;;;;4.97;2.22;;;;;;;11.70;100.00;98451.06;4898507;29;20083;-76
2022/04/09 02:44:50;;;;;;;5.28;2.20;;;;;;;11.67;100.00;98462.00;4881190;29;20520;-76
2022/04/09 02:47:21;;;;;;;5.75;2.20;;;;;;;11.57;100.00;98458.50;4881307;29;20109;-78
2022/04/09 02:49:49;;;;;;;6.00;2.70;;;;;;;11.59;100.00;98461.91;4897453;29;20502;-77
2022/04/09 02:52:18;;;;;;;6.72;1.98;;;;;;;11.49;100.00;98461.06;4898334;29;20131;-77
2022/04/09 02:54:46;;;;;;;5.25;2.05;;;;;;;11.42;100.00;98466.13;4881288;29;20059;-78
2022/04/09 02:57:15;;;;;;;5.60;2.17;;;;;;;11.36;100.00;98472.84;4898467;29;20069;-80
2022/04/09 02:59:44;;;;;;;5.07;2.13;;;;;;;11.32;100.00;98468.78;4898378;29;20359;-77
2022/04/09 03:02:12;;;;;;;5.95;1.90;;;;;;;11.32;100.00;98466.13;4898246;29;20079;-77
2022/04/09 03:04:41;;;;;;;4.57;1.90;;;;;;;11.36;100.00;98459.50;4881351;29;20103;-79
2022/04/09 03:07:10;;;;;;;3.92;1.90;;;;;;;11.38;100.00;98473.53;4881296;29;20057;-78
2022/04/09 03:09:38;;;;;;;5.30;1.92;;;;;;;11.37;100.00;98463.84;4897796;29;20461;-77
2022/04/09 03:12:08;;;;;;;5.18;1.98;;;;;;;11.35;100.00;98465.81;4897876;29;20093;-78
2022/04/09 03:14:36;;;;;;;4.57;1.98;;;;;;;11.40;100.00;98478.78;4897683;29;20086;-77
2022/04/09 03:17:04;;;;;;;6.22;2.10;;;;;;;11.30;100.00;98481.44;4898116;29;20367;-76
2022/04/09 03:19:35;;;;;;;6.57;2.60;;;;;;;11.24;100.00;98473.97;4897774;29;20056;-79
2022/04/09 03:22:05;;;;;;;7.20;2.40;;;;;;;11.23;100.00;98469.63;4897945;29;20052;-79
2022/04/09 03:24:33;;;;;;;4.70;2.30;;;;;;;11.34;100.00;98464.13;4897667;29;20048;-78
2022/04/09 03:27:01;;;;;;;6.70;2.50;;;;;;;11.25;100.00;98469.47;4897910;29;20048;-78
2022/04/09 03:29:29;;;;;;;5.65;2.55;;;;;;;11.17;100.00;98462.16;4897512;29;20123;-78
2022/04/09 03:31:57;;;;;;;6.13;2.63;;;;;;;11.20;100.00;98480.59;4897634;29;20107;-77
2022/04/09 03:34:25;;;;;;;7.93;3.00;;;;;;;11.14;100.00;98489.97;4897208;29;20063;-76
2022/04/09 03:36:53;;;;;;;6.38;2.72;;;;;;;11.19;100.00;98494.88;4897238;29;20045;-76
2022/04/09 03:39:23;;;;;;;5.95;2.85;;;;;;;11.15;100.00;98488.16;4897079;29;20056;-76
2022/04/09 03:41:51;;;;;;;6.93;3.30;;;;;;;11.23;100.00;98477.63;4897159;29;20360;-75
2022/04/09 03:44:39;;;;;;;6.68;3.58;;;;;;;11.27;100.00;98481.69;4897453;29;20109;-76
2022/04/09 03:47:08;;;;;;;5.95;3.50;;;;;;;11.27;100.00;98471.00;4897773;29;20107;-75
2022/04/09 03:49:36;;;;;;;6.78;3.38;;;;;;;11.24;100.00;98473.97;4897638;29;20116;-77
2022/04/09 03:52:05;;;;;;;8.95;3.45;;;;;;;11.23;100.00;98469.63;4897452;29;20068;-76
2022/04/09 03:54:38;;;;;;;6.13;3.15;;;;;;;11.22;100.00;98489.28;4880726;29;20055;-76
2022/04/09 03:57:06;;;;;;;5.85;2.95;;;;;;;11.19;100.00;98497.56;4897122;29;20044;-76
2022/04/09 03:59:35;;;;;;;9.32;3.42;;;;;;;11.18;100.00;98494.03;4897113;29;20048;-76
2022/04/09 04:02:04;;;;;;;7.85;3.40;;;;;;;11.17;100.00;98488.84;4896970;29;20399;-78
2022/04/09 04:04:33;;;;;;;7.72;3.10;;;;;;;11.11;100.00;98489.41;4896964;29;20124;-77
2022/04/09 04:07:02;;;;;;;6.65;3.08;;;;;;;11.11;100.00;98489.41;4897116;29;20072;-78
2022/04/09 04:09:30;;;;;;;7.03;3.20;;;;;;;11.12;100.00;98485.75;4897092;29;20048;-78
2022/04/09 04:12:00;;;;;;;5.97;2.97;;;;;;;11.07;100.00;98477.31;4880438;29;20057;-79
2022/04/09 04:14:28;;;;;;;5.55;2.80;;;;;;;11.07;100.00;98482.66;4897049;29;20072;-78
2022/04/09 04:16:56;;;;;;;5.10;2.67;;;;;;;11.06;100.00;98480.97;4897047;29;20115;-79
2022/04/09 04:19:25;;;;;;;4.57;2.50;;;;;;;11.08;100.00;98473.66;4897272;29;20398;-77
2022/04/09 04:21:53;;;;;;;5.80;2.60;;;;;;;11.02;100.00;98474.25;4880127;29;20125;-77
2022/04/09 04:24:23;;;;;;;5.88;1.90;;;;;;;10.95;100.00;98467.75;4879520;29;20052;-77
2022/04/09 04:26:51;;;;;;;3.63;1.83;;;;;;;10.92;100.00;98463.56;4879921;29;20414;-79
2022/04/09 04:29:21;;;;;;;6.55;2.05;;;;;;;10.89;100.00;98463.81;4879929;29;20077;-78
2022/04/09 04:31:49;;;;;;;5.30;1.80;;;;;;;10.88;100.00;98460.28;4896822;29;20116;-78
2022/04/09 04:34:18;;;;;;;6.47;1.60;;;;;;;10.86;100.00;98454.25;4879869;29;20282;-78
2022/04/09 04:36:46;;;;;;;4.25;1.77;;;;;;;10.93;100.00;98446.56;4880082;29;20104;-77
2022/04/09 04:39:14;;;;;;;5.68;1.88;;;;;;;10.83;100.00;98445.72;4896872;29;20073;-78
2022/04/09 04:41:42;;;;;;;5.10;2.13;;;;;;;10.78;100.00;98445.25;4879546;29;20053;-78
2022/04/09 04:44:11;;;;;;;4.82;2.38;;;;;;;10.77;100.00;98439.09;4896799;29;20056;-79
2022/04/09 04:46:41;;;;;;;6.00;2.03;;;;;;;10.83;100.00;98449.22;4879738;29;20414;-77
2022/04/09 04:49:10;;;;;;;6.70;2.20;;;;;;;10.78;100.00;98434.59;4896699;29;20072;-77
2022/04/09 04:51:38;;;;;;;4.25;2.00;;;;;;;10.77;100.00;98423.09;4879635;29;20076;-79
2022/04/09 04:54:06;;;;;;;6.45;2.55;;;;;;;10.69;100.00;98420.25;4896564;29;20577;-77
2022/04/09 04:56:34;;;;;;;4.35;2.03;;;;;;;10.79;100.00;98421.13;4879381;29;20194;-75
2022/04/09 04:59:02;;;;;;;6.05;2.22;;;;;;;10.85;100.00;98431.25;4896848;29;20048;-76
2022/04/09 05:01:30;;;;;;;3.60;1.90;;;;;;;10.86;100.00;98422.25;4879363;29;20494;-76
2022/04/09 05:04:00;;;;;;;7.45;2.35;;;;;;;10.88;100.00;98416.78;4896050;29;20482;-77
2022/04/09 05:06:29;;;;;;;4.78;2.00;;;;;;;10.65;100.00;98391.34;4896351;29;20044;-78
2022/04/09 05:08:57;;;;;;;4.95;2.20;;;;;;;10.56;100.00;98369.03;4896935;29;20045;-78
2022/04/09 05:11:25;;;;;;;4.15;1.92;;;;;;;10.57;100.00;98341.38;4896297;29;20123;-78
2022/04/09 05:13:53;;;;;;;5.25;2.08;;;;;;;10.52;100.00;98328.47;4881946;29;20052;-77
2022/04/09 05:16:27;;;;;;;5.90;2.38;;;;;;;10.55;100.00;98317.53;4883259;29;20440;-76
2022/04/09 05:18:55;;;;;;;5.50;2.70;;;;;;;10.58;100.00;98324.41;4899924;29;20056;-76
2022/04/09 05:21:26;;;;;;;3.78;1.90;;;;;;;10.62;100.00;98298.31;4899809;29;20472;-77
2022/04/09 05:23:54;;;;;;;3.95;1.63;;;;;;;10.55;100.00;98290.88;4899801;29;20049;-74
2022/04/09 05:26:22;;;;;;;3.30;1.35;;;;;;;10.49;100.00;98311.91;4899715;29;20048;-75
2022/04/09 05:28:53;;;;;;;4.22;1.75;;;;;;;10.42;100.00;98311.63;4900234;29;20125;-77
2022/04/09 05:31:25;;;;;;;3.25;1.42;;;;;;;10.48;100.00;98310.22;4899899;29;20367;-78
2022/04/09 05:33:53;;;;;;;4.13;1.73;;;;;;;10.50;100.00;98310.91;4900204;29;20237;-78
2022/04/09 05:36:22;;;;;;;3.90;1.60;;;;;;;10.62;100.00;98333.81;4883815;29;20059;-79
2022/04/09 05:38:51;;;;;;;4.07;1.50;;;;;;;10.53;100.00;98313.34;4883447;29;20143;-76
2022/04/09 05:41:19;;;;;;;3.92;1.38;;;;;;;10.73;100.00;98323.03;4882851;29;20057;-79
2022/04/09 05:43:48;;;;;;;2.22;1.52;;;;;;;10.87;100.00;98327.91;4882660;29;20135;-78
2022/04/09 05:46:16;;;;;;;4.10;1.75;;;;;;;11.05;100.00;98336.06;4899817;29;20064;-77
2022/04/09 05:48:44;;;;;;;3.35;1.63;;;;;;;11.26;100.00;98353.72;4881928;29;20067;-79
2022/04/09 05:51:13;;;;;;;4.60;1.55;;;;;;;11.34;100.00;98365.38;4899389;29;20354;-77
2022/04/09 05:53:41;;;;;;;4.35;1.33;;;;;;;11.35;100.00;98367.06;4882287;29;20079;-77
2022/04/09 05:56:11;;;;;;;4.05;1.48;;;;;;;11.45;100.00;98367.88;4882397;29;20532;-78
2022/04/09 05:58:41;;;;;;;3.97;1.50;;;;;;;11.35;100.00;98382.22;4882255;29;20108;-78
2022/04/09 06:01:09;;;;;;;4.93;1.48;;;;;;;11.22;100.00;98371.88;4899555;29;20052;-78
2022/04/09 06:03:38;;;;;;;4.78;1.75;;;;;;;11.07;100.00;98351.91;4898954;29;20069;-77
2022/04/09 06:06:07;;;;;;;4.57;1.33;;;;;;;11.08;100.00;98373.13;4899083;29;20082;-77
2022/04/09 06:08:35;;;;;;;3.53;1.42;;;;;;;10.96;100.00;98397.41;4881901;29;20558;-77
2022/04/09 06:11:03;;;;;;;4.45;1.40;;;;;;;10.81;100.00;98392.50;4899380;29;20072;-78
2022/04/09 06:13:33;;;;;;;2.90;1.30;;;;;;;10.73;100.00;98392.34;4881902;29;20055;-78
2022/04/09 06:16:05;;;;;;;2.83;1.33;;;;;;;10.67;100.00;98384.91;4881647;29;20052;-78
2022/04/09 06:18:35;;;;;;;3.83;1.33;;;;;;;10.70;100.00;98405.09;4881718;29;20135;-78
2022/04/09 06:21:03;;;;;;;2.25;1.15;;;;;;;10.72;100.00;98381.84;4881800;29;20059;-77
2022/04/09 06:23:32;;;;;;;4.45;1.48;;;;;;;10.78;100.00;98376.75;4881246;29;20048;-79
2022/04/09 06:26:00;;;;;;;3.25;1.27;;;;;;;10.70;100.00;98357.09;4898837;29;20112;-78
2022/04/09 06:28:30;;;;;;;3.58;1.73;;;;;;;10.75;100.00;98366.38;4881961;29;20041;-79
2022/04/09 06:31:00;;;;;;;5.35;1.73;;;;;;;10.81;100.00;98365.84;4882107;29;20064;-79
2022/04/09 06:33:28;;;;;;;2.38;1.48;;;;;;;10.76;100.00;98344.06;4883259;29;20060;-78
2022/04/09 06:35:57;;;;;;;3.50;1.80;;;;;;;10.94;100.00;98354.88;4881789;29;20565;-79
2022/04/09 06:38:27;;;;;;;3.15;1.55;;;;;;;11.12;100.00;98363.03;4882096;29;20052;-78
2022/04/09 06:40:55;;;;;;;2.88;1.55;;;;;;;11.01;100.00;98366.69;4881414;29;20422;-78
2022/04/09 06:43:23;;;;;;;5.43;1.70;;;;;;;11.07;100.00;98367.94;4898810;29;20045;-77
2022/04/09 06:45:52;;;;;;;3.70;1.90;;;;;;;11.14;100.00;98371.72;4898127;29;20542;-79
2022/04/09 06:48:22;;;;;;;3.97;1.70;;;;;;;11.14;100.00;98366.38;4898043;29;20044;-76
2022/04/09 06:50:50;;;;;;;3.22;1.85;;;;;;;11.21;100.00;98382.69;4877775;29;20053;-77
2022/04/09 06:53:18;;;;;;;5.20;1.95;;;;;;;11.14;100.00;98387.72;4877931;29;20049;-76
2022/04/09 06:55:46;;;;;;;4.57;1.95;;;;;;;11.03;100.00;98390.56;4878083;29;20049;-77
2022/04/09 06:58:15;;;;;;;3.45;1.45;;;;;;;11.10;100.00;98381.84;4862545;29;20049;-76
2022/04/09 07:00:44;;;;;;;3.83;1.88;;;;;;;11.14;100.00;98390.41;4880926;29;20096;-77
2022/04/09 07:03:13;;;;;;;4.68;2.08;;;;;;;11.11;100.00;98386.19;4917027;29;20103;-78
2022/04/09 07:05:42;;;;;;;4.85;1.85;;;;;;;11.16;100.00;98378.59;4916474;29;20127;-77
2022/04/09 07:08:11;;;;;;;4.13;1.90;;;;;;;11.17;100.00;98387.44;4916747;29;20553;-77
2022/04/09 07:10:40;;;;;;;3.70;1.80;;;;;;;11.11;100.00;98401.38;4899461;29;20044;-77
2022/04/09 07:13:08;;;;;;;4.90;1.77;;;;;;;11.11;100.00;98388.03;4899917;29;20052;-80
2022/04/09 07:15:37;;;;;;;4.78;1.95;;;;;;;11.16;100.00;98364.41;4899390;29;20107;-80
2022/04/09 07:18:05;;;;;;;5.30;2.30;;;;;;;11.21;100.00;98359.50;4899776;29;20569;-77
2022/04/09 07:20:35;;;;;;;3.90;1.80;;;;;;;11.10;100.00;98355.16;4899350;29;20084;-79
2022/04/09 07:23:05;;;;;;;4.32;1.70;;;;;;;11.11;100.00;98393.38;4899805;29;20077;-79
2022/04/09 07:25:33;;;;;;;3.72;1.83;;;;;;;11.07;100.00;98391.94;4899407;29;20052;-77
2022/04/09 07:28:02;;;;;;;4.00;1.75;;;;;;;11.22;100.00;98403.88;4899121;29;20052;-76
2022/04/09 07:30:31;;;;;;;4.20;1.48;;;;;;;10.73;100.00;98559.50;4899063;29;20135;-75
2022/04/09 07:32:59;;;;;;;3.42;1.65;;;;;;;10.51;100.00;98581.84;4915991;29;20063;-77
2022/04/09 07:35:28;;;;;;;2.13;1.35;;;;;;;10.63;100.00;98590.63;4891141;29;20407;-75
2022/04/09 07:37:58;;;;;;;1.98;0.50;;;;;;;10.69;100.00;98579.41;4884256;29;20063;-73
2022/04/09 07:40:29;;;;;;;2.38;0.70;;;;;;;10.60;100.00;98591.72;4881456;29;20511;-71
2022/04/09 07:42:59;;;;;;;1.25;0.70;;;;;;;10.46;100.00;98592.06;4897410;29;20052;-77
2022/04/09 07:45:28;;;;;;;1.98;0.57;;;;;;;10.41;100.00;98603.09;4897167;29;20036;-77
2022/04/09 07:47:57;;;;;;;1.55;0.60;;;;;;;10.39;100.00;98593.56;4897097;29;20557;-76
2022/04/09 07:50:26;;;;;;;1.70;1.10;;;;;;;10.34;100.00;98593.97;4881037;29;20048;-76
2022/04/09 07:52:55;;;;;;;2.08;0.80;;;;;;;10.43;100.00;98600.34;4880193;29;20049;-75
2022/04/09 07:55:23;;;;;;;2.17;0.65;;;;;;;10.40;100.00;98598.75;4880493;29;20087;-77
2022/04/09 07:57:54;;;;;;;2.20;0.73;;;;;;;10.41;100.00;98591.59;4897261;29;20049;-75
2022/04/09 08:00:23;;;;;;;1.80;0.68;;;;;;;10.53;100.00;98590.56;4897648;29;20426;-76
2022/04/09 08:02:52;;;;;;;1.50;0.68;;;;;;;10.65;100.00;98578.00;4880388;29;20135;-76
2022/04/09 08:05:21;;;;;;;2.63;0.90;;;;;;;10.73;100.00;98568.34;4897475;29;20048;-76
2022/04/09 08:07:50;;;;;;;3.17;0.93;;;;;;;10.85;100.00;98575.28;4880017;29;20051;-77
2022/04/09 08:10:18;;;;;;;1.98;0.45;;;;;;;11.16;100.00;98569.88;4880329;29;20049;-75
2022/04/09 08:12:49;;;;;;;3.08;0.68;;;;;;;11.34;100.00;98575.41;4895345;29;20063;-75
2022/04/09 08:15:19;;;;;;;1.35;0.90;;;;;;;11.52;100.00;98578.25;4897243;29;20044;-73
2022/04/09 08:17:49;;;;;;;3.20;1.10;;;;;;;11.47;100.00;98574.16;4879890;29;20052;-76
2022/04/09 08:20:20;;;;;;;2.03;1.08;;;;;;;11.53;100.00;98587.94;4896976;29;20110;-76
2022/04/09 08:22:49;;;;;;;1.73;1.08;;;;;;;11.70;100.00;98577.44;4896735;29;20045;-76
2022/04/09 08:25:18;;;;;;;3.67;1.15;;;;;;;11.71;100.00;98581.78;4880360;29;20065;-78
2022/04/09 08:27:49;;;;;;;3.17;1.20;;;;;;;11.85;100.00;98593.06;4879555;29;20527;-76
2022/04/09 08:30:19;;;;;;;3.10;1.20;;;;;;;11.82;100.00;98591.50;4896836;29;20096;-75
2022/04/09 08:32:49;;;;;;;1.60;1.00;;;;;;;11.89;100.00;98602.50;4896377;29;20131;-77
2022/04/09 08:35:17;;;;;;;3.85;1.10;;;;;;;11.96;100.00;98603.59;4879925;29;20053;-76
2022/04/09 08:37:53;;;;;;;3.40;1.42;;;;;;;11.84;100.00;98597.56;4896621;29;20049;-78
2022/04/09 08:40:22;;;;;;;4.32;1.55;;;;;;;11.81;100.00;98605.84;4880006;29;20060;-77
2022/04/09 08:42:51;;;;;;;5.05;1.63;;;;;;;11.81;100.00;98605.03;4879492;29;20056;-77
2022/04/09 08:45:21;;;;;;;4.82;1.90;;;;;;;11.75;100.00;98609.03;4879809;29;20451;-74
2022/04/09 08:47:50;;;;;;;5.15;1.70;;;;;;;11.82;100.00;98610.22;4882012;29;20455;-76
2022/04/09 08:50:20;;;;;;;5.60;1.70;;;;;;;11.85;100.00;98607.25;4883526;29;20049;-78
2022/04/09 08:52:49;;;;;;;5.50;2.00;;;;;;;11.90;100.00;98604.19;4883472;29;20472;-77
2022/04/09 08:55:19;;;;;;;3.58;1.67;;;;;;;11.93;100.00;98601.22;4883968;29;20048;-75
2022/04/09 08:57:52;;;;;;;3.78;1.35;;;;;;;11.94;100.00;98601.06;4902512;29;20436;-73
2022/04/09 09:00:24;;;;;;;3.53;1.48;;;;;;;11.93;100.00;98607.41;4882919;29;20053;-76
2022/04/09 09:02:55;;;;;;;3.63;1.55;;;;;;;11.84;100.00;98608.25;4879989;29;20048;-75
2022/04/09 09:05:41;;;;;;;4.63;1.73;;;;;;;11.78;100.00;98610.63;4881779;29;20059;-76
2022/04/09 09:08:11;;;;;;;4.30;1.65;;;;;;;11.86;100.00;98619.63;4878987;29;20067;-77
2022/04/09 09:10:40;;;;;;;2.95;1.40;;;;;;;11.81;100.00;98629.06;4880649;29;20049;-77
2022/04/09 09:13:10;;;;;;;4.30;1.50;;;;;;;11.71;100.00;98637.03;4880527;29;20056;-76
2022/04/09 09:15:52;;;;;;;3.67;1.40;;;;;;;11.76;100.00;98634.78;4863681;29;20363;-76
2022/04/09 09:18:22;;;;;;;3.20;1.17;;;;;;;11.72;100.00;98633.38;4880230;29;20041;-74
2022/04/09 09:20:52;;;;;;;3.33;1.23;;;;;;;11.64;100.00;98630.53;4879956;29;20128;-77
2022/04/09 09:23:22;;;;;;;2.55;1.42;;;;;;;11.54;100.00;98643.03;4863614;29;20085;-76
2022/04/09 09:25:50;;;;;;;4.18;1.55;;;;;;;11.52;100.00;98637.84;4880388;29;20049;-74
2022/04/09 09:28:29;;;;;;;2.90;1.40;;;;;;;11.51;100.00;98632.63;4863515;29;20056;-74
2022/04/09 09:31:04;;;;;;;3.63;1.40;;;;;;;11.50;100.00;98633.63;4882191;29;20380;-76
2022/04/09 09:33:32;;;;;;;2.75;1.35;;;;;;;11.45;100.00;98637.53;4898625;29;20076;-75
2022/04/09 09:36:36;;;;;;;3.63;1.42;;;;;;;11.53;100.00;98644.88;4881789;29;20060;-77
2022/04/09 09:39:05;;;;;;;2.08;1.00;;;;;;;11.64;100.00;98651.91;4898816;29;20127;-77
2022/04/09 09:41:35;;;;;;;1.70;1.05;;;;;;;11.60;100.00;98658.53;4881919;29;20092;-78
2022/04/09 09:44:05;;;;;;;3.78;1.40;;;;;;;11.53;100.00;98681.41;4881617;29;20512;-74
2022/04/09 09:46:35;;;;;;;2.65;1.45;;;;;;;11.28;100.00;98691.56;4881624;29;20136;-77
2022/04/09 09:49:04;;;;;;;2.90;1.30;;;;;;;11.19;100.00;98721.72;4881622;29;20482;-74
2022/04/09 09:51:33;;;;;;;2.85;1.30;;;;;;;10.95;100.00;98726.53;4881385;29;20056;-73
2022/04/09 09:54:06;;;;;;;1.98;1.10;;;;;;;10.78;100.00;98754.63;4898770;29;20049;-77
2022/04/09 09:56:37;;;;;;;;;;;;;;;10.56;100.00;98743.13;4881777;29;20132;-73
2022/04/09 09:59:07;;;;;;;2.08;1.30;;;;;;;10.48;100.00;98764.22;4896798;29;19923;-75
2022/04/09 10:01:39;;;;;;;1.85;1.23;;;;;;;10.32;100.00;98775.31;4881480;29;20063;-75
2022/04/09 10:04:11;;;;;;;2.35;1.02;;;;;;;9.92;100.00;98776.84;4881633;29;20045;-76
2022/04/09 10:06:42;;;;;;;1.55;0.98;;;;;;;9.60;100.00;98785.59;4898111;29;20044;-74
2022/04/09 10:09:13;;;;;;;1.08;0.90;;;;;;;9.66;100.00;98813.56;4880640;29;20490;-75
2022/04/09 10:11:47;;;;;;;1.70;1.20;;;;;;;9.38;100.00;98804.22;4898341;29;20052;-73
2022/04/09 10:14:20;;;;;;;1.38;0.93;;;;;;;9.34;100.00;98802.75;4881488;29;20490;-74
2022/04/09 10:16:52;;;;;;;2.80;1.60;;;;;;;9.37;100.00;98802.53;4881138;29;20112;-76
2022/04/09 10:19:24;;;;;;;1.65;1.33;;;;;;;9.67;100.00;98800.13;4881734;29;20056;-75
2022/04/09 10:21:54;;;;;;;2.70;1.30;;;;;;;9.75;100.00;98803.03;4898456;29;20490;-74
2022/04/09 10:24:27;;;;;;;1.80;1.25;;;;;;;9.66;100.00;98825.06;4881252;29;20049;-76
2022/04/09 10:26:58;;;;;;;1.98;1.33;;;;;;;9.83;100.00;98810.38;4898343;29;20045;-75
2022/04/09 10:29:26;;;;;;;2.75;1.50;;;;;;;9.72;100.00;98813.91;4898029;29;20040;-77
2022/04/09 10:31:56;;;;;;;1.40;0.77;;;;;;;9.33;100.00;98817.03;4881028;29;20127;-73
2022/04/09 10:34:25;;;;;;;3.20;1.58;;;;;;;9.31;100.00;98825.13;4897769;29;20053;-72
2022/04/09 10:37:08;;;;;;;3.05;1.50;;;;;;;9.34;100.00;98803.59;4880666;29;20087;-78
2022/04/09 10:39:47;;;;;;;;;;;;;;;9.48;100.00;98799.88;4881416;29;20058;-77
2022/04/09 10:42:52;;;;;;;4.63;1.80;;;;;;;9.10;100.00;98821.47;4881099;29;19923;-77
2022/04/09 10:45:21;;;;;;;2.38;1.65;;;;;;;8.88;100.00;98831.09;4898158;29;20380;-76
2022/04/09 10:48:11;;;;;;;2.30;1.45;;;;;;;8.87;100.00;98852.47;4880492;29;20068;-77
2022/04/09 10:50:58;;;;;;;2.63;1.40;;;;;;;8.75;100.00;98853.38;4880730;29;20056;-78
2022/04/09 10:53:28;;;;;;;2.42;1.52;;;;;;;8.62;100.00;98872.06;4897446;29;20513;-72
2022/04/09 10:56:24;;;;;;;2.40;1.30;;;;;;;8.67;100.00;98883.19;4897423;29;20074;-77
2022/04/09 10:59:05;;;;;;;2.33;1.40;;;;;;;8.63;100.00;98880.91;4897399;29;20128;-76
2022/04/09 11:01:54;;;;;;;5.63;1.33;;;;;;;8.64;100.00;98887.91;4895774;29;20506;-77
2022/04/09 11:04:44;;;;;;;1.95;1.08;;;;;;;8.78;100.00;98874.41;4880646;29;20055;-76
2022/04/09 11:07:15;;;;;;;1.73;1.30;;;;;;;8.92;100.00;98892.88;4897285;29;20507;-75
2022/04/09 11:09:58;;;;;;;1.98;1.30;;;;;;;8.95;100.00;98887.31;4879844;29;20087;-75
2022/04/09 11:12:28;;;;;;;1.92;1.20;;;;;;;9.03;100.00;98906.22;4897226;29;20364;-76
2022/04/09 11:14:58;;;;;;;0.98;0.70;;;;;;;8.77;100.00;98936.53;4880405;29;20105;-74
2022/04/09 11:17:29;;;;;;;1.50;1.08;;;;;;;8.88;100.00;98910.03;4879637;29;20080;-76
2022/04/09 11:20:02;;;;;;;3.28;1.10;;;;;;;8.87;100.00;98929.56;4896742;29;20451;-72
2022/04/09 11:22:35;;;;;;;1.45;1.05;;;;;;;8.90;100.00;98932.03;4896690;29;20139;-74
2022/04/09 11:25:05;;;;;;;0.90;0.70;;;;;;;8.71;100.00;98944.97;4896894;29;20101;-74
2022/04/09 11:27:34;;;;;;;2.08;1.17;;;;;;;8.86;100.00;98954.47;4879971;29;20295;-73
2022/04/09 11:30:03;;;;;;;2.60;1.13;;;;;;;8.84;100.00;98977.69;4896597;29;20443;-75
2022/04/09 11:32:35;;;;;;;5.53;1.38;;;;;;;8.89;100.00;98963.09;4896755;29;20068;-73
2022/04/09 11:35:10;;;;;;;3.65;1.42;;;;;;;8.83;100.00;98971.50;4879753;29;20056;-72
2022/04/09 11:37:40;;;;;;;3.63;1.15;;;;;;;8.87;100.00;98990.75;4879509;29;20048;-73
2022/04/09 11:40:11;;;;;;;3.33;1.20;;;;;;;8.97;100.00;98986.44;4879961;29;20574;-76